Flatwoods, Kentucky
Current Conditions -  °F | °C
As of 1:15 PM on Tuesday 21 Oct 2014 (Local Time) from KDWU Reporting Station
Overcast Overcast  
Wind Chill: 55°   Ceiling: 6000
Heat Index: 55°   Visibility: 10mi
Dew Point: 43°   Wind: 9mph
Humidity: 63%   Direction: 330°NNW
Pressure: 29.98"   Gusts: NA
Location:  38.52°N, 82.72°W
Report Text: KDWU 211715Z AUTO 33008KT 280V360 10SM OVC060 13/06 A2998 RMK AO1
Loading
Personal Weather Stations






























Interactive Weather Map
Tropical Storm Tracking
New forecast layout! Learn more

10-Day Weather Forecast

Advertisements
Track Severe Weather on mobile